Time;durP1;ratioP1;P1;durP2;ratioP2;P2;SDS_P1;SDS_P2;PMS_P1;PMS_P2;Temp;Humidity;BMP_temperature;BMP_pressure;BME280_temperature;BME280_humidity;BME280_pressure;Samples;Min_cycle;Max_cycle;Signal;HPM_P1;HPM_P2
2023/12/20 00:01:18;;;;;;;;;;;;;;;7.76;100.00;101247.97;4968997;28;19964;-95
2023/12/20 00:03:58;;;;;;;;;;;;;;;7.80;100.00;101252.09;5029969;28;19960;-95
2023/12/20 00:06:39;;;;;;;;;;;;;;;7.81;100.00;101230.94;5022625;28;19927;-94
2023/12/20 00:09:07;;;;;;;;;;;;;;;7.87;100.00;101229.66;5014536;28;19922;-95
2023/12/20 00:11:33;;;;;;;;;;;;;;;7.89;100.00;101233.03;4983472;28;19918;-96
2023/12/20 00:13:59;;;;;;;;;;;;;;;7.92;100.00;101237.22;5034946;28;19924;-94
2023/12/20 00:16:24;;;;;;;;;;;;;;;7.93;100.00;101234.47;4986019;28;19953;-96
2023/12/20 00:18:55;;;;;;;;;;;;;;;7.96;100.00;101235.22;4999665;28;20017;-96
2023/12/20 00:21:21;;;;;;;;;;;;;;;7.98;100.00;101228.88;5015179;28;19925;-96
2023/12/20 00:23:50;;;;;;;;;;;;;;;7.98;100.00;101239.41;5020331;28;19917;-96
2023/12/20 00:26:16;;;;;;;;;;;;;;;8.04;100.00;101233.72;4984568;28;20020;-95
2023/12/20 00:28:42;;;;;;;;;;;;;;;8.06;100.00;101239.72;5032564;28;19953;-96
2023/12/20 00:31:10;;;;;;;;;;;;;;;8.09;100.00;101243.94;5017014;28;19967;-96
2023/12/20 00:33:48;;;;;;;;;;;;;;;8.09;100.00;101254.47;5000775;28;19917;-96
2023/12/20 00:36:18;;;;;;;;;;;;;;;8.12;100.00;101256.88;5002139;28;19971;-96
2023/12/20 00:38:51;;;;;;;;;;;;;;;8.14;100.00;101254.97;4995112;28;19917;-96
2023/12/20 00:41:24;;;;;;;;;;;;;;;8.15;100.00;101255.84;5009728;28;20386;-96
2023/12/20 00:43:52;;;;;;;;;;;;;;;8.16;100.00;101255.72;4986311;28;19917;-96
2023/12/20 00:46:19;;;;;;;;;;;;;;;8.21;100.00;101251.91;5033477;28;19924;-96
2023/12/20 00:48:47;;;;;;;;;;;;;;;8.22;100.00;101250.97;5009934;28;20330;-96
2023/12/20 00:51:16;;;;;;;;;;;;;;;8.24;100.00;101256.97;5021193;28;19917;-95
2023/12/20 00:53:41;;;;;;;;;;;;;;;8.25;100.00;101246.31;5004216;28;19925;-96
2023/12/20 00:56:08;;;;;;;;;;;;;;;8.26;100.00;101248.03;4996034;28;20236;-96
2023/12/20 00:58:44;;;;;;;;;;;;;;;8.29;100.00;101242.53;5018616;28;19929;-95
2023/12/20 01:04:47;;;;;;;;;;;;;;;8.36;100.00;101224.47;4990755;28;19924;-96
2023/12/20 01:07:36;;;;;;;;;;;;;;;8.38;100.00;101216.47;4999687;28;19948;-96
2023/12/20 01:10:30;;;;;;;;;;;;;;;8.38;100.00;101216.47;5000812;28;19922;-96
2023/12/20 01:13:02;;;;;;;;;;;;;;;8.40;100.00;101215.41;4985380;28;19921;-95
2023/12/20 01:15:33;;;;;;;;;;;;;;;8.40;100.00;101212.78;5032250;28;19928;-96
2023/12/20 01:18:02;;;;;;;;;;;;;;;8.41;100.00;101224.13;5015883;28;19980;-96
2023/12/20 01:20:48;;;;;;;;;;;;;;;8.42;100.00;101228.47;4994060;28;19941;-96
2023/12/20 01:23:30;;;;;;;;;;;;;;;8.42;100.00;101239.03;5011146;28;19925;-96
2023/12/20 01:26:24;;;;;;;;;;;;;;;8.47;100.00;101238.69;5012003;28;19924;-96
2023/12/20 01:28:58;;;;;;;;;;;;;;;8.50;100.00;101225.28;5035220;28;19964;-96
2023/12/20 01:31:45;;;;;;;;;;;;;;;8.53;100.00;101231.19;5006843;28;19917;-96
2023/12/20 01:34:11;;;;;;;;;;;;;;;8.56;100.00;101238.91;5014344;28;20617;-96
2023/12/20 01:36:42;;;;;;;;;;;;;;;8.59;100.00;101235.19;5001452;28;20012;-96
2023/12/20 01:39:08;;;;;;;;;;;;;;;8.61;100.00;101235.94;5008055;28;19928;-96
2023/12/20 01:41:47;;;;;;;;;;;;;;;;;;;;;
2023/12/20 01:44:14;;;;;;;;;;;;;;;8.63;100.00;101234.00;5017280;28;19924;-96
2023/12/20 01:46:42;;;;;;;;;;;;;;;8.65;100.00;101241.78;5014682;28;20012;-96
2023/12/20 01:49:08;;;;;;;;;;;;;;;8.65;100.00;101231.25;5017864;28;19927;-96
2023/12/20 01:51:44;;;;;;;;;;;;;;;8.68;100.00;101231.88;5015606;28;19921;-96
2023/12/20 01:54:13;;;;;;;;;;;;;;;8.70;100.00;101229.13;5034423;28;19924;-96
2023/12/20 01:56:40;;;;;;;;;;;;;;;8.71;100.00;101241.38;5017607;28;19921;-96
2023/12/20 01:59:07;;;;;;;;;;;;;;;8.71;100.00;101236.09;5017189;28;19933;-96
2023/12/20 02:01:39;;;;;;;;;;;;;;;8.72;100.00;101232.50;5030944;28;19972;-96
2023/12/20 02:04:07;;;;;;;;;;;;;;;8.72;100.00;101223.75;5034464;28;20016;-96
2023/12/20 02:06:40;;;;;;;;;;;;;;;8.72;100.00;101215.84;4998016;28;19976;-95
2023/12/20 02:09:18;;;;;;;;;;;;;;;8.72;100.00;101224.59;4993819;28;20381;-96
2023/12/20 02:11:48;;;;;;;;;;;;;;;8.73;100.00;101223.63;5012780;28;19917;-96
2023/12/20 02:14:17;;;;;;;;;;;;;;;8.75;100.00;101227.00;4998239;28;20381;-96
2023/12/20 02:16:45;;;;;;;;;;;;;;;8.77;100.00;101232.16;5011936;28;19918;-96
2023/12/20 02:19:13;;;;;;;;;;;;;;;8.79;100.00;101222.34;5002032;28;19917;-96
2023/12/20 02:21:39;;;;;;;;;;;;;;;8.81;100.00;101228.34;4981717;28;19921;-96
2023/12/20 02:24:08;;;;;;;;;;;;;;;8.81;100.00;101229.19;5013648;28;19977;-96
2023/12/20 02:26:43;;;;;;;;;;;;;;;8.83;100.00;101231.72;5015038;28;19922;-95
2023/12/20 02:29:12;;;;;;;;;;;;;;;8.85;100.00;101228.97;4998936;28;20002;-96
2023/12/20 02:31:48;;;;;;;;;;;;;;;8.84;100.00;101229.91;4972562;28;19925;-96
2023/12/20 02:34:16;;;;;;;;;;;;;;;8.84;100.00;101235.19;5004680;28;19926;-96
2023/12/20 02:36:42;;;;;;;;;;;;;;;8.84;100.00;101232.56;5019484;28;20444;-96
2023/12/20 02:39:08;;;;;;;;;;;;;;;8.84;100.00;101236.00;5001206;28;20450;-95
2023/12/20 02:41:34;;;;;;;;;;;;;;;8.84;100.00;101235.19;5023647;28;20247;-96
2023/12/20 02:44:01;;;;;;;;;;;;;;;8.81;100.00;101237.09;4986561;28;19926;-96
2023/12/20 02:46:28;;;;;;;;;;;;;;;8.84;100.00;101243.09;4992085;28;20060;-96
2023/12/20 02:48:57;;;;;;;;;;;;;;;8.84;100.00;101237.84;5002734;28;20012;-96
2023/12/20 02:51:26;;;;;;;;;;;;;;;8.86;100.00;101249.09;4980790;28;19929;-96
2023/12/20 02:53:53;;;;;;;;;;;;;;;8.83;100.00;101254.59;5014114;28;19983;-96
2023/12/20 02:56:18;;;;;;;;;;;;;;;8.80;100.00;101240.69;4997288;28;20366;-96
2023/12/20 02:58:45;;;;;;;;;;;;;;;8.80;100.00;101243.34;5006222;28;19918;-96
2023/12/20 03:01:23;;;;;;;;;;;;;;;8.80;100.00;101239.84;4988459;28;19917;-96
2023/12/20 03:03:49;;;;;;;;;;;;;;;8.80;100.00;101234.56;5020054;28;19921;-96
2023/12/20 03:06:19;;;;;;;;;;;;;;;8.78;100.00;101229.41;4997623;28;19917;-96
2023/12/20 03:08:45;;;;;;;;;;;;;;;8.78;100.00;101239.09;4985259;28;19921;-96
2023/12/20 03:11:11;;;;;;;;;;;;;;;8.76;100.00;101244.50;4981586;28;19992;-96
2023/12/20 03:13:38;;;;;;;;;;;;;;;8.73;100.00;101238.63;5031020;28;19917;-95
2023/12/20 03:16:10;;;;;;;;;;;;;;;8.71;100.00;101248.44;5032375;28;19917;-96
2023/12/20 03:18:36;;;;;;;;;;;;;;;8.72;100.00;101236.91;5030879;28;19917;-96
2023/12/20 03:21:02;;;;;;;;;;;;;;;8.71;100.00;101236.09;5021311;28;19944;-96
2023/12/20 03:23:28;;;;;;;;;;;;;;;8.70;100.00;101226.50;5013687;28;19931;-96
2023/12/20 03:25:54;;;;;;;;;;;;;;;8.70;100.00;101226.50;5004269;28;19918;-96
2023/12/20 03:28:19;;;;;;;;;;;;;;;8.70;100.00;101218.59;5003125;28;19921;-96
2023/12/20 03:30:47;;;;;;;;;;;;;;;8.73;100.00;101217.53;5032784;28;19925;-96
2023/12/20 03:33:12;;;;;;;;;;;;;;;8.77;100.00;101214.56;4979597;28;19921;-95
2023/12/20 03:42:04;;;;;;;;;;;;;;;8.81;100.00;101207.25;5035515;28;19917;-96
2023/12/20 03:44:30;;;;;;;;;;;;;;;8.85;100.00;101214.00;5014502;28;19997;-96
2023/12/20 03:46:58;;;;;;;;;;;;;;;8.86;100.00;101206.91;4988517;28;19941;-96
2023/12/20 03:49:24;;;;;;;;;;;;;;;8.88;100.00;101212.91;4981429;28;19921;-96
2023/12/20 03:51:50;;;;;;;;;;;;;;;8.92;100.00;101209.94;5005049;28;19925;-96
2023/12/20 03:54:16;;;;;;;;;;;;;;;8.93;100.00;101208.97;4979603;28;19917;-96
2023/12/20 03:56:44;;;;;;;;;;;;;;;8.95;100.00;101205.38;5020163;28;19984;-96
2023/12/20 03:59:10;;;;;;;;;;;;;;;8.94;100.00;101212.44;4982990;28;19941;-94
2023/12/20 04:01:36;;;;;;;;;;;;;;;8.93;100.00;101216.88;5021084;28;19918;-96
2023/12/20 04:04:01;;;;;;;;;;;;;;;8.95;100.00;101223.84;5026654;28;19926;-96
2023/12/20 04:06:28;;;;;;;;;;;;;;;8.95;100.00;101221.22;5031513;28;19918;-96
2023/12/20 04:08:54;;;;;;;;;;;;;;;8.92;100.00;101228.38;4997746;28;19922;-96
2023/12/20 04:11:23;;;;;;;;;;;;;;;8.90;100.00;101230.28;4985920;28;19925;-96
2023/12/20 04:13:52;;;;;;;;;;;;;;;8.90;100.00;101227.66;4998415;28;20508;-96
2023/12/20 04:16:17;;;;;;;;;;;;;;;8.88;100.00;101226.94;5026725;28;19976;-96
2023/12/20 04:18:43;;;;;;;;;;;;;;;8.86;100.00;101226.22;5012546;28;19924;-96
2023/12/20 04:21:12;;;;;;;;;;;;;;;8.87;100.00;101230.50;4996179;28;19968;-96
2023/12/20 04:23:38;;;;;;;;;;;;;;;8.85;100.00;101224.53;5014851;28;19917;-96
2023/12/20 04:26:04;;;;;;;;;;;;;;;8.86;100.00;101223.56;4997616;28;19922;-96
2023/12/20 04:28:32;;;;;;;;;;;;;;;8.89;100.00;101217.22;5001266;28;19929;-96
2023/12/20 04:31:00;;;;;;;;;;;;;;;8.87;100.00;101212.06;5035830;28;19944;-96
2023/12/20 04:33:29;;;;;;;;;;;;;;;8.89;100.00;101196.97;4987916;28;19987;-96
2023/12/20 04:35:55;;;;;;;;;;;;;;;8.90;100.00;101197.81;4998319;28;19922;-96
2023/12/20 04:38:20;;;;;;;;;;;;;;;8.91;100.00;101195.06;4999776;28;19952;-95
2023/12/20 04:40:46;;;;;;;;;;;;;;;8.92;100.00;101194.13;5017387;28;19956;-95
2023/12/20 04:43:13;;;;;;;;;;;;;;;8.95;100.00;101187.75;5020531;28;19965;-96
2023/12/20 04:45:38;;;;;;;;;;;;;;;8.96;100.00;101199.16;5005382;28;19921;-96
2023/12/20 04:48:07;;;;;;;;;;;;;;;8.94;100.00;101191.34;5030137;28;19921;-96
2023/12/20 04:50:33;;;;;;;;;;;;;;;8.95;100.00;101194.84;5012609;28;19981;-96
2023/12/20 04:52:58;;;;;;;;;;;;;;;8.95;100.00;101190.38;4988789;28;19917;-96
2023/12/20 04:55:24;;;;;;;;;;;;;;;8.93;100.00;101187.06;4999036;28;19940;-96
2023/12/20 04:57:50;;;;;;;;;;;;;;;8.95;100.00;101176.38;4990201;28;19926;-96
2023/12/20 05:00:16;;;;;;;;;;;;;;;8.97;100.00;101185.00;4978493;28;19908;-96
2023/12/20 05:02:41;;;;;;;;;;;;;;;8.98;100.00;101190.16;4994986;28;19929;-96
2023/12/20 05:05:07;;;;;;;;;;;;;;;9.00;100.00;101185.63;4985979;28;19961;-96
2023/12/20 05:07:33;;;;;;;;;;;;;;;9.02;100.00;101188.13;5000234;28;19917;-96
2023/12/20 05:09:59;;;;;;;;;;;;;;;9.03;100.00;101192.47;5014792;28;19906;-96
2023/12/20 05:12:28;;;;;;;;;;;;;;;9.03;100.00;101187.22;5034625;28;19962;-96
2023/12/20 05:15:00;;;;;;;;;;;;;;;9.06;100.00;101179.06;4983689;28;19922;-96
2023/12/20 05:17:33;;;;;;;;;;;;;;;9.09;100.00;101175.34;5035119;28;19961;-96
2023/12/20 05:20:01;;;;;;;;;;;;;;;9.10;100.00;101171.75;5001165;28;19922;-96
2023/12/20 05:22:38;;;;;;;;;;;;;;;9.11;100.00;101168.97;5024930;28;19945;-96
2023/12/20 05:25:08;;;;;;;;;;;;;;;9.11;100.00;101158.44;5000017;28;19918;-96
2023/12/20 05:27:36;;;;;;;;;;;;;;;9.14;100.00;101163.47;5004242;28;19928;-96
2023/12/20 05:30:13;;;;;;;;;;;;;;;9.18;100.00;101161.44;5002161;28;19913;-96
2023/12/20 05:32:51;;;;;;;;;;;;;;;9.18;100.00;101164.94;5021919;28;19985;-96
2023/12/20 05:35:17;;;;;;;;;;;;;;;9.21;100.00;101171.75;5016125;28;19906;-96
2023/12/20 05:37:57;;;;;;;;;;;;;;;9.24;100.00;101176.81;5022528;28;20004;-96
2023/12/20 05:40:23;;;;;;;;;;;;;;;9.25;100.00;101177.66;5021602;28;19917;-96
2023/12/20 05:42:49;;;;;;;;;;;;;;;9.26;100.00;101171.41;5007965;28;19981;-96
2023/12/20 05:45:17;;;;;;;;;;;;;;;9.26;100.00;101166.13;5029227;28;20362;-96
2023/12/20 05:47:47;;;;;;;;;;;;;;;9.25;100.00;101148.63;5029449;28;19918;-96
2023/12/20 05:50:13;;;;;;;;;;;;;;;9.26;100.00;101156.44;5005420;28;19971;-96
2023/12/20 05:52:39;;;;;;;;;;;;;;;9.24;100.00;101154.84;4990016;28;19918;-96
2023/12/20 05:55:08;;;;;;;;;;;;;;;9.24;100.00;101146.94;5020139;28;19925;-96
2023/12/20 05:57:49;;;;;;;;;;;;;;;9.24;100.00;101139.03;5022249;28;19985;-96
2023/12/20 06:00:15;;;;;;;;;;;;;;;9.26;100.00;101131.84;4997392;28;19921;-96
2023/12/20 06:02:43;;;;;;;;;;;;;;;9.26;100.00;101142.41;5010330;28;19962;-96
2023/12/20 06:05:09;;;;;;;;;;;;;;;9.28;100.00;101143.13;5015427;28;19922;-96
2023/12/20 06:07:48;;;;;;;;;;;;;;;9.29;100.00;101140.38;5024990;28;19918;-96
2023/12/20 06:10:14;;;;;;;;;;;;;;;9.33;100.00;101137.50;5008915;28;19937;-96
2023/12/20 06:12:40;;;;;;;;;;;;;;;9.34;100.00;101129.47;5008498;28;19924;-96
2023/12/20 06:15:06;;;;;;;;;;;;;;;9.38;100.00;101136.16;5003855;28;19921;-95
2023/12/20 06:17:32;;;;;;;;;;;;;;;9.39;100.00;101134.38;5003793;28;19910;-96
2023/12/20 06:19:59;;;;;;;;;;;;;;;9.42;100.00;101139.41;5039647;28;19980;-95
2023/12/20 06:22:27;;;;;;;;;;;;;;;9.44;100.00;101132.22;4991472;28;19924;-96
2023/12/20 06:25:06;;;;;;;;;;;;;;;9.46;100.00;101121.53;4984040;28;20008;-96
2023/12/20 06:27:37;;;;;;;;;;;;;;;9.50;100.00;101131.75;4999741;28;19917;-96
2023/12/20 06:30:03;;;;;;;;;;;;;;;9.51;100.00;101116.72;5002964;28;19928;-96
2023/12/20 06:32:29;;;;;;;;;;;;;;;9.51;100.00;101108.81;5008989;28;19929;-96
2023/12/20 06:34:58;;;;;;;;;;;;;;;9.51;100.00;101117.56;5018504;28;19930;-96
2023/12/20 06:37:26;;;;;;;;;;;;;;;9.51;100.00;101108.81;5009213;28;20008;-96
2023/12/20 06:39:56;;;;;;;;;;;;;;;9.53;100.00;101110.38;4992071;28;19917;-96
2023/12/20 06:42:23;;;;;;;;;;;;;;;9.57;100.00;101120.69;5009317;28;19973;-96
2023/12/20 06:44:50;;;;;;;;;;;;;;;9.57;100.00;101118.06;5014855;28;19992;-96
2023/12/20 06:47:15;;;;;;;;;;;;;;;9.59;100.00;101116.16;5004879;28;19918;-96
2023/12/20 06:49:41;;;;;;;;;;;;;;;9.60;100.00;101134.50;5002380;28;19944;-96
2023/12/20 06:52:10;;;;;;;;;;;;;;;9.60;100.00;101126.59;5016624;28;19902;-96
2023/12/20 06:54:36;;;;;;;;;;;;;;;9.61;100.00;101117.69;5041794;28;19917;-96
2023/12/20 06:57:04;;;;;;;;;;;;;;;9.61;100.00;101128.25;4992757;28;19921;-96
2023/12/20 06:59:37;;;;;;;;;;;;;;;9.64;100.00;101121.88;4986908;28;19917;-96
2023/12/20 07:02:14;;;;;;;;;;;;;;;9.64;100.00;101122.72;5008597;28;20257;-96
2023/12/20 07:04:41;;;;;;;;;;;;;;;9.66;100.00;101123.47;4995056;28;19952;-96
2023/12/20 07:07:09;;;;;;;;;;;;;;;9.65;100.00;101118.31;5007945;28;19961;-96
2023/12/20 07:09:42;;;;;;;;;;;;;;;9.62;100.00;101114.09;5002192;28;19930;-96
2023/12/20 07:12:16;;;;;;;;;;;;;;;9.64;100.00;101124.53;4998026;28;19922;-96
2023/12/20 07:14:44;;;;;;;;;;;;;;;9.63;100.00;101109.66;4999708;28;19921;-96
2023/12/20 07:17:13;;;;;;;;;;;;;;;9.65;100.00;101105.91;5004544;28;20008;-96
2023/12/20 07:19:41;;;;;;;;;;;;;;;9.64;100.00;101111.31;5002761;28;19918;-96
2023/12/20 07:22:19;;;;;;;;;;;;;;;9.65;100.00;101108.56;5010279;28;19925;-96
2023/12/20 07:24:46;;;;;;;;;;;;;;;9.66;100.00;101112.06;5010208;28;19917;-95
2023/12/20 07:39:57;;;;;;;;;;;;;;;9.72;100.00;101111.56;6093993;22;19908;-96
2023/12/20 07:42:27;;;;;;;;;;;;;;;9.77;100.00;101105.91;5002962;28;19921;-96
2023/12/20 07:44:55;;;;;;;;;;;;;;;9.77;100.00;101119.13;5000235;28;20011;-95
2023/12/20 07:47:57;;;;;;;;;;;;;;;9.73;100.00;101121.16;4995874;28;19921;-96
2023/12/20 07:50:55;;;;;;;;;;;;;;;9.70;100.00;101123.22;5005680;28;19944;-96
2023/12/20 07:57:05;;;;;;;;;;;;;;;9.65;100.00;101105.91;5015850;28;19925;-96
2023/12/20 07:59:34;;;;;;;;;;;;;;;9.68;100.00;101110.97;4998076;28;20000;-95
2023/12/20 08:02:03;;;;;;;;;;;;;;;9.67;100.00;101098.72;5013587;28;19992;-96
2023/12/20 08:04:35;;;;;;;;;;;;;;;9.68;100.00;101105.69;5000322;28;20009;-96
2023/12/20 08:07:10;;;;;;;;;;;;;;;9.68;100.00;101083.75;5008910;28;19963;-95
2023/12/20 08:09:40;;;;;;;;;;;;;;;9.70;100.00;101073.06;4997659;28;20294;-96
2023/12/20 08:12:18;;;;;;;;;;;;;;;9.66;100.00;101068.03;5036647;28;19918;-96
2023/12/20 08:14:53;;;;;;;;;;;;;;;9.67;100.00;101067.06;5011546;28;20526;-95
2023/12/20 08:20:47;;;;;;;;;;;;;;;9.71;100.00;101082.66;5010678;28;19917;-96
2023/12/20 08:23:16;;;;;;;;;;;;;;;9.70;100.00;101092.34;4997880;28;20392;-92
2023/12/20 08:26:07;;;;;;;;;;;;;;;9.71;100.00;101085.28;5001662;28;19917;-96
2023/12/20 08:28:37;;;;;;;;;;;;;;;9.72;100.00;101085.16;5027553;28;20040;-96
2023/12/20 08:31:21;;;;;;;;;;;;;;;9.77;100.00;101111.19;5007413;28;19925;-96
2023/12/20 08:34:15;;;;;;;;;;;;;;;9.76;100.00;101141.22;4997846;28;19956;-95
2023/12/20 08:36:44;;;;;;;;;;;;;;;9.79;100.00;101118.03;5007042;28;19918;-95
2023/12/20 08:39:14;;;;;;;;;;;;;;;9.80;100.00;101132.91;4998817;28;20039;-96
2023/12/20 08:41:43;;;;;;;;;;;;;;;9.83;100.00;101125.69;5012845;28;20405;-96
2023/12/20 08:47:48;;;;;;;;;;;;;;;9.84;100.00;101115.03;5027873;28;20064;-95
2023/12/20 08:50:15;;;;;;;;;;;;;;;9.83;100.00;101101.94;5017790;28;19928;-95
2023/12/20 08:53:34;;;;;;;;;;;;;;;9.77;100.00;101111.19;5033570;28;19917;-96
2023/12/20 09:00:27;;;;;;;;;;;;;;;9.64;100.00;101132.44;5035220;28;19920;-95
2023/12/20 09:04:06;;;;;;;;;;;;;;;9.60;100.00;101112.53;5040030;28;20008;-96
2023/12/20 09:06:32;;;;;;;;;;;;;;;9.55;100.00;101105.00;5005352;28;20447;-95
2023/12/20 09:09:06;;;;;;;;;;;;;;;9.52;100.00;101094.69;5010288;28;19931;-96
2023/12/20 09:11:33;;;;;;;;;;;;;;;9.53;100.00;101091.06;4991715;28;20396;-96
2023/12/20 09:14:24;;;;;;;;;;;;;;;9.48;100.00;101094.06;5020488;28;19924;-96
2023/12/20 09:16:56;;;;;;;;;;;;;;;9.50;100.00;101088.66;5000746;28;19929;-96
2023/12/20 09:20:07;;;;;;;;;;;;;;;9.50;100.00;101092.16;5025707;28;19923;-96
2023/12/20 09:23:29;;;;;;;;;;;;;;;;;;;;;
2023/12/20 09:26:15;;;;;;;;;;;;;;;9.44;100.00;101071.53;4997591;28;20344;-95
2023/12/20 09:29:15;;;;;;;;;;;;;;;9.39;100.00;101063.13;5007062;28;19925;-96
2023/12/20 09:31:44;;;;;;;;;;;;;;;9.44;100.00;101055.69;4979580;28;19921;-95
2023/12/20 09:38:25;;;;;;;;;;;;;;;9.38;100.00;101067.56;5020148;28;19918;-95
2023/12/20 09:47:59;;;;;;;;;;;;;;;9.32;100.00;101057.50;5002773;28;19924;-96
2023/12/20 09:50:41;;;;;;;;;;;;;;;9.33;100.00;101068.91;4995291;28;19925;-95
2023/12/20 09:56:48;;;;;;;;;;;;;;;9.35;100.00;101044.06;4969538;28;19918;-96
2023/12/20 09:59:39;;;;;;;;;;;;;;;9.33;100.00;101043.38;4965995;28;20280;-96
2023/12/20 10:06:05;;;;;;;;;;;;;;;9.36;100.00;101037.00;4978390;28;19918;-96
2023/12/20 10:09:06;;;;;;;;;;;;;;;9.36;100.00;101034.34;5010935;28;19921;-95
2023/12/20 10:12:28;;;;;;;;;;;;;;;9.37;100.00;101043.94;4977283;28;20314;-95
2023/12/20 10:14:58;;;;;;;;;;;;;;;9.39;100.00;101015.66;4979402;28;19922;-96
2023/12/20 10:17:34;;;;;;;;;;;;;;;;;;;;;
2023/12/20 10:20:10;;;;;;;;;;;;;;;9.40;100.00;100993.56;4990585;28;20440;-94
2023/12/20 10:22:45;;;;;;;;;;;;;;;9.41;100.00;100996.06;5004661;28;20029;-96
2023/12/20 10:29:22;;;;;;;;;;;;;;;9.40;100.00;101007.59;5023520;28;19984;-96
2023/12/20 10:32:56;;;;;;;;;;;;;;;9.41;100.00;100993.44;5013665;28;19971;-95
2023/12/20 10:44:39;;;;;;;;;;;;;;;9.37;100.00;101005.22;4988251;28;20309;-94
2023/12/20 10:47:31;;;;;;;;;;;;;;;9.38;100.00;101004.25;5015386;28;19921;-96
2023/12/20 10:53:45;;;;;;;;;;;;;;;9.43;100.00;100998.59;5008219;28;19917;-96
2023/12/20 10:56:46;;;;;;;;;;;;;;;;;;;;;
2023/12/20 11:04:04;;;;;;;;;;;;;;;9.53;100.00;100983.72;4986756;28;20406;-96
2023/12/20 11:06:33;;;;;;;;;;;;;;;9.57;100.00;100988.75;4943291;28;19941;-96
2023/12/20 11:13:10;;;;;;;;;;;;;;;;;;;;;
2023/12/20 11:15:42;;;;;;;;;;;;;;;9.65;100.00;100981.88;5014196;28;20024;-95
2023/12/20 11:18:14;;;;;;;;;;;;;;;9.70;100.00;100973.56;5031382;28;20000;-96
2023/12/20 11:21:10;;;;;;;;;;;;;;;9.72;100.00;100952.31;5015276;28;19916;-96
2023/12/20 11:24:02;;;;;;;;;;;;;;;9.74;100.00;100959.19;4955028;28;20487;-95
2023/12/20 11:27:44;;;;;;;;;;;;;;;9.78;100.00;100960.59;4962039;28;19988;-95
2023/12/20 11:30:35;;;;;;;;;;;;;;;9.79;100.00;100941.13;4936089;28;19922;-96
2023/12/20 11:33:36;;;;;;;;;;;;;;;9.81;100.00;100943.66;4959375;28;19924;-96
2023/12/20 11:36:21;;;;;;;;;;;;;;;9.83;100.00;100951.44;4940544;28;19935;-95
2023/12/20 11:42:17;;;;;;;;;;;;;;;9.84;100.00;100937.28;5005243;23;19903;-96
2023/12/20 11:44:44;;;;;;;;;;;;;;;9.87;100.00;100932.59;5018184;28;19934;-96
2023/12/20 11:47:28;;;;;;;;;;;;;;;9.87;100.00;100931.75;5040396;28;19967;-96
2023/12/20 11:49:56;;;;;;;;;;;;;;;9.85;100.00;100913.41;5004319;23;19930;-96
2023/12/20 11:52:22;;;;;;;;;;;;;;;9.87;100.00;100924.69;4983414;28;20009;-96
2023/12/20 11:54:51;;;;;;;;;;;;;;;9.87;100.00;100923.84;4972548;28;19922;-96
2023/12/20 11:57:30;;;;;;;;;;;;;;;9.90;100.00;100919.16;4998412;28;19937;-96
2023/12/20 11:59:58;;;;;;;;;;;;;;;9.86;100.00;100909.78;4987868;28;20381;-96
2023/12/20 12:02:51;;;;;;;;;;;;;;;9.86;100.00;100904.50;4981917;28;19937;-96
2023/12/20 12:05:17;;;;;;;;;;;;;;;9.86;100.00;100898.41;4959021;28;19919;-96
2023/12/20 12:07:43;;;;;;;;;;;;;;;9.86;100.00;100896.59;4981727;28;19961;-96
2023/12/20 12:13:27;;;;;;;;;;;;;;;9.87;100.00;100881.59;4964289;28;19927;-96
2023/12/20 12:22:26;;;;;;;;;;;;;;;9.80;100.00;100879.47;5824839;23;19927;-96
2023/12/20 12:25:14;;;;;;;;;;;;;;;9.81;100.00;100898.75;4923101;28;19925;-96
2023/12/20 12:28:10;;;;;;;;;;;;;;;9.81;100.00;100885.56;4942963;29;19942;-96
2023/12/20 12:30:56;;;;;;;;;;;;;;;9.82;100.00;100881.97;4930258;29;19922;-96
2023/12/20 12:33:56;;;;;;;;;;;;;;;9.86;100.00;100882.56;4938695;29;19922;-96
2023/12/20 12:36:28;;;;;;;;;;;;;;;9.88;100.00;100875.34;4990582;28;19925;-96
2023/12/20 12:38:57;;;;;;;;;;;;;;;9.89;100.00;100863.81;4948501;28;19918;-94
2023/12/20 12:42:55;;;;;;;;;;;;;;;9.90;100.00;100868.97;4919141;29;20036;-95
2023/12/20 12:46:56;;;;;;;;;;;;;;;;;;;;;
2023/12/20 12:49:33;;;;;;;;;;;;;;;9.96;100.00;100887.88;4886250;29;20592;-95
2023/12/20 12:52:22;;;;;;;;;;;;;;;9.96;100.00;100870.25;4884410;29;20006;-95
2023/12/20 12:54:51;;;;;;;;;;;;;;;10.00;100.00;100866.38;4885025;29;19919;-95
2023/12/20 13:08:14;;;;;;;;;;;;;;;10.05;100.00;100832.50;4897288;29;19930;-96
2023/12/20 13:10:43;;;;;;;;;;;;;;;10.04;100.00;100833.47;4877081;29;19920;-95
2023/12/20 13:13:12;;;;;;;;;;;;;;;10.05;100.00;100824.56;4870568;29;20088;-94
2023/12/20 13:15:38;;;;;;;;;;;;;;;10.07;100.00;100828.88;4880270;29;19944;-96
2023/12/20 13:18:05;;;;;;;;;;;;;;;10.06;100.00;100822.78;4890117;29;19918;-96
2023/12/20 13:20:31;;;;;;;;;;;;;;;10.10;100.00;100821.53;4929495;29;19974;-96
2023/12/20 13:22:57;;;;;;;;;;;;;;;10.12;100.00;100800.25;4913061;29;19934;-94
2023/12/20 13:25:23;;;;;;;;;;;;;;;10.14;100.00;100804.47;4950145;29;19919;-96
2023/12/20 13:27:51;;;;;;;;;;;;;;;10.14;100.00;100800.97;4925300;28;19918;-96
2023/12/20 13:30:29;;;;;;;;;;;;;;;10.16;100.00;100791.13;4961778;28;19927;-94
2023/12/20 13:32:55;;;;;;;;;;;;;;;10.17;100.00;100796.28;4944700;29;19950;-96
2023/12/20 13:35:21;;;;;;;;;;;;;;;10.20;100.00;100797.81;4951355;28;20394;-96
2023/12/20 13:37:47;;;;;;;;;;;;;;;10.18;100.00;100782.09;4961474;28;19926;-96
2023/12/20 13:40:13;;;;;;;;;;;;;;;10.22;100.00;100782.66;4926186;29;19922;-95
2023/12/20 13:42:42;;;;;;;;;;;;;;;10.26;100.00;100776.13;4936785;29;19973;-96
2023/12/20 13:45:14;;;;;;;;;;;;;;;10.29;100.00;100769.72;4942202;29;20358;-96
2023/12/20 13:47:56;;;;;;;;;;;;;;;10.29;100.00;100767.94;4974112;28;19949;-96
2023/12/20 13:50:31;;;;;;;;;;;;;;;10.34;100.00;100774.63;4944569;28;20375;-96
2023/12/20 13:53:33;;;;;;;;;;;;;;;10.32;100.00;100784.50;4983477;28;19928;-96
2023/12/20 13:56:01;;;;;;;;;;;;;;;10.35;100.00;100773.66;4960010;28;20000;-96
2023/12/20 13:58:30;;;;;;;;;;;;;;;10.35;100.00;100765.72;4945536;28;20408;-96
2023/12/20 14:01:00;;;;;;;;;;;;;;;10.34;100.00;100756.13;4970838;28;19918;-96
2023/12/20 14:03:26;;;;;;;;;;;;;;;10.35;100.00;100761.25;4939521;28;19918;-95
2023/12/20 14:06:37;;;;;;;;;;;;;;;10.37;100.00;100761.13;4953763;29;19966;-96
2023/12/20 14:09:35;;;;;;;;;;;;;;;10.38;100.00;100768.09;4937828;28;19946;-96
2023/12/20 14:15:19;;;;;;;;;;;;;;;10.40;100.00;100739.75;4948989;28;19934;-96
2023/12/20 14:17:48;;;;;;;;;;;;;;;10.40;100.00;100748.50;4953393;28;19941;-96
2023/12/20 14:20:16;;;;;;;;;;;;;;;10.39;100.00;100749.47;4930576;29;20278;-96
2023/12/20 14:22:56;;;;;;;;;;;;;;;10.42;100.00;100721.94;4951400;28;19923;-96
2023/12/20 14:25:42;;;;;;;;;;;;;;;10.44;100.00;100733.22;4950957;29;20009;-95
2023/12/20 14:28:20;;;;;;;;;;;;;;;;;;;;;
2023/12/20 14:30:50;;;;;;;;;;;;;;;10.46;100.00;100730.44;4932440;29;19927;-96
2023/12/20 14:33:46;;;;;;;;;;;;;;;10.50;100.00;100732.69;4943126;29;20360;-96
2023/12/20 14:36:17;;;;;;;;;;;;;;;10.50;100.00;100729.19;4946227;29;19989;-96
2023/12/20 14:43:46;;;;;;;;;;;;;;;10.52;100.00;100709.63;4933567;29;19970;-96
2023/12/20 14:46:28;;;;;;;;;;;;;;;10.52;100.00;100709.63;4939496;29;20738;-96
2023/12/20 14:49:02;;;;;;;;;;;;;;;10.51;100.00;100712.41;4945178;29;19931;-96
2023/12/20 14:51:41;;;;;;;;;;;;;;;10.52;100.00;100720.19;4915882;29;19934;-96
2023/12/20 15:01:08;;;;;;;;;;;;;;;10.58;100.00;100699.44;4962332;29;20002;-96
2023/12/20 15:03:48;;;;;;;;;;;;;;;10.59;100.00;100691.38;4932679;29;19919;-96
2023/12/20 15:09:52;;;;;;;;;;;;;;;10.63;100.00;100694.59;4960401;29;19922;-96
2023/12/20 15:12:38;;;;;;;;;;;;;;;10.63;100.00;100692.78;4967095;28;19933;-96
2023/12/20 15:15:33;;;;;;;;;;;;;;;10.65;100.00;100687.34;4933620;29;19974;-96
2023/12/20 15:18:06;;;;;;;;;;;;;;;10.64;100.00;100697.09;4946619;28;19922;-95
2023/12/20 15:20:51;;;;;;;;;;;;;;;10.64;100.00;100688.31;4947288;29;19942;-96
2023/12/20 15:23:26;;;;;;;;;;;;;;;10.65;100.00;100695.28;4953407;29;19927;-96